Česky Dansk Deutsch English Español Suomi Français Magyar Italiano Nederlands norsk Polski Português svenska Türkçe

 

Het Weer

Valkenburg (Nederland)

09:55, 1 april 2010 (CET)

NWNNE
WE
SWSSE
Home            
Valkenburg Rotterdam Airport Zestienhoven Amsterdam Airport Schiphol De Bilt Soesterberg Gilze-Rijen Lelystad Woensdrecht De Kooy Weelde Military Brasschaat Deelen Volkel Eindhoven Antwerpen / Deurne Gent / Industrie-Zone Vlieland Kleine Brogel Niederrhein Laarbruch Kalkar Schaffen Melsbroek Bel-Afb

Om een weerknop op uw website of weblog te plaatsen, copieer onderstaande code en plak die in uw pagina. In het eerste vakje staat HTML-code, in het tweede vakje UBB-code.


Add to Google

Details

Wind speed:5 bf, 17 kn, 8.7 m/s, 19.6 miles/h, 31.5 km/h
Wind direction:WSW, 250°
Clouds:Ein wenig bewölkt at 2100 ft, 640 m
Durchbrochene Bewölkung at 3700 ft, 1128 m
Temperature:5°C, 41°F
Dew-point:1°C, 34°F
Atmospheric pressure:1003 hPa, 752.3 mmHg, 29.62 inHg, 0.990 atm
Relative humidity:75.3 %
METAR:EHVB 010755Z AUTO 25017KT 9999NDV FEW021 BKN037 05/01 Q1003 BLU

Snelkoppelingen

Actuele weersinformatie van de hele wereld. Voeg locaties toe met het plus (+) symbool. Deze snelkoppelingen kunnen worden toegevoegd aan Google.

Lid van de Technetium groep

website free tracking
StatCounter NetStat W3C Validator

20-11-2017 02:27:52
astro.technetium.be money.technetium.be phote.technetium.be tafeltennistafel.technetium.be www.ligfiets.net